Crystal Beach, Vermont
Current Conditions -  °F | °C
As of 1:15 PM on Sunday 25 Jan 2015 (Local Time) from K6B0 Reporting Station
Scattered Clouds Scattered Clouds  
Wind Chill:   Ceiling: Unl
Heat Index: 19°   Visibility: 10mi
Dew Point:   Wind: 12mph
Humidity: 47%   Direction: 340°NNW
Pressure: 29.75"   Gusts: 17mph
Location:  43.6297°N, 73.1988°W
Report Text: K6B0 251815Z AUTO 34010G15KT 10SM SCT041 M07/M17 A2975 RMK AO2 T10701166
Loading
Personal Weather Stations






























Interactive Weather Map New forecast layout! Learn more

10-Day Weather Forecast

Advertisements
Track Severe Weather on mobile